Time;durP1;ratioP1;P1;durP2;ratioP2;P2;SDS_P1;SDS_P2;PMS_P1;PMS_P2;Temp;Humidity;BMP_temperature;BMP_pressure;BME280_temperature;BME280_humidity;BME280_pressure;Samples;Min_cycle;Max_cycle;Signal;HPM_P1;HPM_P2
2023/06/02 00:01:20;;;;;;;13.00;6.33;;;9.90;1.00;;;;;;4994381;28;20216;-90
2023/06/02 00:03:48;;;;;;;20.97;7.60;;;9.80;1.00;;;;;;4994776;28;20258;-90
2023/06/02 00:06:15;;;;;;;17.87;6.40;;;9.80;1.00;;;;;;5011302;28;20267;-90
2023/06/02 00:08:42;;;;;;;13.20;5.60;;;9.80;1.00;;;;;;4997638;28;20198;-90
2023/06/02 00:11:12;;;;;;;20.60;7.37;;;9.80;1.00;;;;;;4994188;28;20195;-89
2023/06/02 00:13:39;;;;;;;24.73;7.63;;;9.70;1.00;;;;;;4994326;28;20218;-89
2023/06/02 00:16:08;;;;;;;11.70;6.20;;;9.70;1.00;;;;;;4994509;28;20205;-89
2023/06/02 00:18:37;;;;;;;14.97;6.40;;;9.70;1.00;;;;;;4982574;28;20225;-90
2023/06/02 00:21:06;;;;;;;19.07;7.03;;;9.70;1.00;;;;;;4993509;28;20258;-88
2023/06/02 00:23:33;;;;;;;13.57;6.93;;;9.60;1.00;;;;;;4994027;28;20227;-89
2023/06/02 00:26:01;;;;;;;11.80;6.40;;;9.60;1.00;;;;;;4994363;28;20244;-89
2023/06/02 00:28:31;;;;;;;12.10;5.80;;;9.60;1.00;;;;;;5005249;28;20265;-88
2023/06/02 00:30:58;;;;;;;7.50;5.07;;;9.50;1.00;;;;;;5014084;28;20204;-90
2023/06/02 00:33:26;;;;;;;14.87;5.90;;;9.50;1.00;;;;;;5016560;28;20557;-89
2023/06/02 00:35:53;;;;;;;20.13;6.30;;;9.40;1.00;;;;;;5016906;28;20203;-89
2023/06/02 00:38:20;;;;;;;13.73;6.50;;;9.40;1.00;;;;;;5016974;28;20264;-90
2023/06/02 00:40:47;;;;;;;14.40;6.27;;;9.40;1.00;;;;;;5017003;28;20533;-90
2023/06/02 00:43:14;;;;;;;12.13;6.30;;;9.30;1.00;;;;;;5017546;28;20193;-88
2023/06/02 00:45:41;;;;;;;12.70;6.90;;;9.30;1.00;;;;;;5017117;28;20208;-89
2023/06/02 00:48:08;;;;;;;16.47;7.53;;;9.30;20.70;;;;;;5016948;28;20200;-90
2023/06/02 00:50:37;;;;;;;12.63;7.07;;;9.30;99.90;;;;;;5016813;28;20200;-89
2023/06/02 00:53:05;;;;;;;15.53;6.40;;;9.30;99.90;;;;;;5016741;28;20604;-89
2023/06/02 00:55:32;;;;;;;11.40;6.43;;;9.30;99.90;;;;;;5016941;28;20217;-90
2023/06/02 00:58:03;;;;;;;11.87;6.70;;;9.40;99.90;;;;;;5016705;28;20193;-90
2023/06/02 01:00:33;;;;;;;11.00;6.20;;;9.30;99.90;;;;;;5016713;28;20200;-90
2023/06/02 01:03:02;;;;;;;14.60;6.60;;;9.30;99.90;;;;;;5016593;28;20667;-88
2023/06/02 01:05:30;;;;;;;12.77;6.57;;;9.40;1.00;;;;;;5016605;28;20204;-89
2023/06/02 01:08:02;;;;;;;12.47;6.70;;;9.50;1.00;;;;;;5016827;28;20208;-90
2023/06/02 01:10:31;;;;;;;11.50;6.27;;;9.70;1.00;;;;;;5017014;28;20596;-91
2023/06/02 01:12:58;;;;;;;12.93;6.43;;;9.90;99.90;;;;;;5016864;28;20201;-91
2023/06/02 01:15:25;;;;;;;10.13;6.10;;;10.00;99.90;;;;;;5016720;28;20210;-89
2023/06/02 01:17:54;;;;;;;11.23;5.97;;;10.10;99.90;;;;;;5017094;28;20201;-90
2023/06/02 01:20:23;;;;;;;14.37;5.90;;;10.20;99.90;;;;;;5016841;28;20274;-90
2023/06/02 01:23:04;;;;;;;12.40;6.20;;;10.20;99.90;;;;;;5016645;28;20574;-90
2023/06/02 01:25:36;;;;;;;14.37;5.90;;;10.30;99.90;;;;;;5016808;28;20206;-90
2023/06/02 01:28:06;;;;;;;14.67;6.70;;;10.30;99.90;;;;;;5008131;28;20234;-90
2023/06/02 01:30:34;;;;;;;16.93;6.33;;;10.40;99.90;;;;;;4997120;28;20198;-90
2023/06/02 01:33:10;;;;;;;13.57;6.57;;;10.40;99.90;;;;;;4996967;28;20202;-89
2023/06/02 01:35:44;;;;;;;13.03;6.33;;;10.50;1.00;;;;;;4996609;28;20688;-89
2023/06/02 01:38:13;;;;;;;16.40;7.10;;;10.50;1.00;;;;;;4996720;28;20243;-90
2023/06/02 01:40:42;;;;;;;16.03;7.13;;;10.60;1.00;;;;;;4996944;28;20198;-90
2023/06/02 01:43:10;;;;;;;14.50;7.43;;;10.60;1.00;;;;;;4982605;28;20245;-90
2023/06/02 01:45:38;;;;;;;16.83;6.93;;;10.70;1.00;;;;;;4996153;28;20248;-90
2023/06/02 01:48:07;;;;;;;17.17;8.27;;;10.80;1.00;;;;;;4995956;28;20202;-90
2023/06/02 01:50:37;;;;;;;13.53;8.00;;;10.90;1.00;;;;;;4996327;28;20203;-90
2023/06/02 01:53:04;;;;;;;17.40;8.23;;;10.90;99.90;;;;;;4987629;28;20211;-90
2023/06/02 01:55:31;;;;;;;18.00;7.40;;;11.00;99.90;;;;;;4996805;28;20228;-90
2023/06/02 01:57:59;;;;;;;16.23;7.07;;;11.10;66.40;;;;;;4996311;28;20624;-90
2023/06/02 02:00:27;;;;;;;12.47;7.27;;;11.20;92.50;;;;;;4996123;28;20239;-89
2023/06/02 02:02:54;;;;;;;16.17;7.57;;;11.20;1.00;;;;;;4995858;28;20197;-89
2023/06/02 02:05:21;;;;;;;16.77;7.50;;;11.20;1.00;;;;;;4995893;28;20283;-89
2023/06/02 02:07:50;;;;;;;15.47;7.70;;;11.30;1.00;;;;;;4995921;28;20210;-89
2023/06/02 02:10:18;;;;;;;14.73;7.67;;;11.40;1.00;;;;;;4996379;28;20201;-89
2023/06/02 02:12:45;;;;;;;15.97;7.93;;;11.40;1.00;;;;;;4996124;28;20246;-90
2023/06/02 02:15:13;;;;;;;16.97;7.80;;;11.40;1.00;;;;;;4996001;28;20220;-90
2023/06/02 02:17:44;;;;;;;15.60;7.80;;;11.40;1.00;;;;;;4995919;28;20205;-89
2023/06/02 02:20:13;;;;;;;14.90;7.47;;;11.40;1.00;;;;;;4995730;28;20205;-90
2023/06/02 02:22:41;;;;;;;14.63;7.53;;;11.40;1.00;;;;;;4995418;28;20256;-89
2023/06/02 02:25:08;;;;;;;15.07;7.43;;;11.40;46.30;;;;;;4995970;28;20193;-89
2023/06/02 02:27:36;;;;;;;15.33;7.90;;;11.40;99.90;;;;;;5000084;28;20236;-90
2023/06/02 02:30:04;;;;;;;19.27;8.50;;;11.50;99.90;;;;;;5015473;28;20243;-89
2023/06/02 02:32:34;;;;;;;13.57;7.73;;;11.50;1.00;;;;;;5014946;28;20201;-90
2023/06/02 02:35:01;;;;;;;14.70;7.87;;;11.60;99.90;;;;;;5014855;28;20255;-89
2023/06/02 02:37:28;;;;;;;14.57;7.40;;;11.70;99.90;;;;;;5015353;28;20205;-89
2023/06/02 02:39:55;;;;;;;17.33;7.97;;;11.80;99.90;;;;;;5014786;28;20260;-89
2023/06/02 02:42:22;;;;;;;20.93;8.77;;;11.90;99.90;;;;;;5010064;28;20226;-90
2023/06/02 02:44:49;;;;;;;22.37;8.90;;;11.90;99.90;;;;;;5014909;28;20196;-90
2023/06/02 02:47:16;;;;;;;17.43;8.53;;;11.90;99.90;;;;;;5014916;28;20186;-90
2023/06/02 02:49:45;;;;;;;15.10;7.47;;;11.80;99.90;;;;;;5015417;28;20256;-90
2023/06/02 02:52:12;;;;;;;15.03;8.03;;;11.70;99.90;;;;;;5015121;28;20201;-90
2023/06/02 02:54:39;;;;;;;14.53;8.10;;;11.60;1.00;;;;;;5014574;28;20686;-90
2023/06/02 02:57:08;;;;;;;12.57;7.50;;;11.60;1.00;;;;;;5014577;28;20737;-89
2023/06/02 02:59:35;;;;;;;12.07;7.73;;;11.60;99.90;;;;;;5014547;28;20566;-90
2023/06/02 03:02:03;;;;;;;14.97;8.37;;;11.60;99.90;;;;;;5014716;28;20611;-90
2023/06/02 03:04:32;;;;;;;16.27;7.83;;;11.60;1.00;;;;;;5014879;28;20314;-89
2023/06/02 03:07:01;;;;;;;13.17;7.60;;;11.60;1.00;;;;;;5014916;28;20201;-89
2023/06/02 03:09:28;;;;;;;14.53;7.63;;;11.60;99.90;;;;;;5014748;28;20218;-89
2023/06/02 03:11:57;;;;;;;15.70;7.97;;;11.60;1.00;;;;;;5014548;28;20625;-89
2023/06/02 03:14:26;;;;;;;12.93;7.43;;;11.60;1.00;;;;;;5014274;28;20207;-89
2023/06/02 03:16:54;;;;;;;14.27;7.70;;;11.50;99.90;;;;;;5028373;28;20196;-90
2023/06/02 03:19:24;;;;;;;13.80;7.87;;;11.40;99.90;;;;;;5030895;28;20201;-89
2023/06/02 03:21:51;;;;;;;16.50;7.73;;;11.40;1.00;;;;;;5014009;28;20198;-90
2023/06/02 03:24:21;;;;;;;14.83;7.73;;;11.30;1.00;;;;;;5014399;28;20203;-90
2023/06/02 03:26:51;;;;;;;18.23;7.83;;;11.20;1.00;;;;;;5014518;28;20254;-90
2023/06/02 03:29:18;;;;;;;13.33;8.30;;;11.20;93.50;;;;;;4999736;28;20290;-89
2023/06/02 03:31:45;;;;;;;13.27;7.63;;;11.10;1.00;;;;;;4993919;28;20200;-89
2023/06/02 03:34:13;;;;;;;12.93;7.53;;;11.10;1.00;;;;;;4994240;28;20202;-89
2023/06/02 03:36:40;;;;;;;13.63;7.37;;;11.00;1.00;;;;;;4974951;28;20257;-90
2023/06/02 03:39:08;;;;;;;12.27;7.90;;;11.00;1.00;;;;;;4992208;28;20197;-90
2023/06/02 03:41:37;;;;;;;17.10;8.97;;;11.10;1.00;;;;;;4994220;28;20227;-89
2023/06/02 03:44:05;;;;;;;17.43;9.20;;;11.20;1.00;;;;;;4994351;28;20325;-90
2023/06/02 03:46:32;;;;;;;19.13;9.47;;;11.40;1.00;;;;;;4994042;28;20283;-89
2023/06/02 03:49:00;;;;;;;19.07;10.03;;;11.50;1.00;;;;;;4994243;28;20228;-89
2023/06/02 03:51:27;;;;;;;21.07;10.60;;;11.70;1.00;;;;;;4993940;28;20195;-89
2023/06/02 03:53:54;;;;;;;22.23;10.70;;;11.80;1.00;;;;;;4993711;28;20190;-89
2023/06/02 03:56:22;;;;;;;19.10;8.97;;;11.80;1.00;;;;;;4993753;28;20218;-90
2023/06/02 03:58:50;;;;;;;16.33;9.30;;;12.00;1.00;;;;;;4994192;28;20201;-89
2023/06/02 04:01:18;;;;;;;15.37;9.33;;;12.10;99.90;;;;;;4994453;28;20195;-88
2023/06/02 04:03:45;;;;;;;16.93;9.73;;;12.20;99.90;;;;;;4994145;28;20201;-89
2023/06/02 04:06:12;;;;;;;18.70;9.87;;;12.30;99.90;;;;;;4993932;28;20249;-89
2023/06/02 04:08:39;;;;;;;19.53;9.63;;;12.30;99.90;;;;;;4997025;28;20201;-89
2023/06/02 04:11:07;;;;;;;18.23;10.13;;;12.40;99.90;;;;;;4997796;28;20202;-89
2023/06/02 04:13:34;;;;;;;17.47;10.17;;;12.40;99.90;;;;;;4997533;28;20669;-89
2023/06/02 04:16:03;;;;;;;18.60;10.70;;;12.50;99.90;;;;;;4997636;28;20216;-89
2023/06/02 04:18:31;;;;;;;18.57;10.33;;;12.50;1.00;;;;;;4997833;28;20667;-89
2023/06/02 04:20:58;;;;;;;16.33;9.93;;;12.60;1.00;;;;;;4997928;28;20628;-89
2023/06/02 04:23:25;;;;;;;18.90;9.63;;;12.60;1.00;;;;;;4997775;28;20631;-90
2023/06/02 04:25:52;;;;;;;17.03;9.03;;;12.70;1.00;;;;;;4997572;28;20568;-89
2023/06/02 04:28:19;;;;;;;17.27;9.57;;;12.70;1.00;;;;;;4997460;28;20639;-89
2023/06/02 04:30:46;;;;;;;15.10;9.57;;;12.80;1.00;;;;;;4997451;28;20249;-89
2023/06/02 04:33:15;;;;;;;17.90;9.23;;;12.80;1.00;;;;;;4977763;28;20671;-88
2023/06/02 04:35:42;;;;;;;12.83;8.17;;;12.90;1.00;;;;;;4993545;28;20211;-89
2023/06/02 04:38:09;;;;;;;12.33;8.27;;;12.90;1.00;;;;;;4997200;28;20266;-90
2023/06/02 04:40:38;;;;;;;18.20;8.90;;;12.90;1.00;;;;;;4997485;28;20619;-90
2023/06/02 04:43:06;;;;;;;13.17;7.70;;;13.00;1.00;;;;;;4997640;28;20200;-90
2023/06/02 04:45:33;;;;;;;12.20;7.03;;;13.20;1.00;;;;;;4997861;28;20260;-89
2023/06/02 04:48:01;;;;;;;9.27;4.97;;;13.30;1.00;;;;;;4997731;28;20204;-90
2023/06/02 04:50:30;;;;;;;7.13;4.80;;;13.50;1.00;;;;;;4997205;28;20207;-89
2023/06/02 04:52:56;;;;;;;9.33;4.73;;;13.70;1.00;;;;;;4996759;28;20204;-89
2023/06/02 04:55:23;;;;;;;8.97;3.67;;;14.00;99.90;;;;;;4996859;28;20217;-88
2023/06/02 04:57:50;;;;;;;8.10;3.30;;;14.20;1.00;;;;;;4997089;28;20661;-90
2023/06/02 05:00:18;;;;;;;4.70;3.07;;;14.30;1.00;;;;;;4996940;28;20247;-89
2023/06/02 05:02:46;;;;;;;4.20;2.80;;;14.30;99.90;;;;;;4997473;28;20271;-89
2023/06/02 05:05:13;;;;;;;5.23;3.03;;;14.20;99.90;;;;;;4997393;28;20197;-90
2023/06/02 05:07:42;;;;;;;4.93;2.80;;;14.10;99.90;;;;;;4996958;28;20221;-90
2023/06/02 05:10:09;;;;;;;4.07;2.27;;;14.20;99.90;;;;;;4996769;28;20563;-90
2023/06/02 05:12:41;;;;;;;5.57;2.50;;;14.30;52.00;;;;;;4997116;28;20569;-89
2023/06/02 05:15:09;;;;;;;6.10;3.03;;;14.30;1.00;;;;;;4995893;28;20651;-89
2023/06/02 05:17:36;;;;;;;4.77;2.60;;;14.30;1.00;;;;;;4996821;28;20741;-88
2023/06/02 05:20:04;;;;;;;4.80;2.73;;;14.20;1.00;;;;;;4995991;28;20660;-88
2023/06/02 05:22:31;;;;;;;3.53;2.57;;;14.10;1.00;;;;;;4982086;28;20220;-90
2023/06/02 05:25:00;;;;;;;5.37;2.50;;;14.00;1.00;;;;;;4996457;28;20201;-91
2023/06/02 05:27:26;;;;;;;5.57;2.87;;;13.90;1.00;;;;;;4997446;28;20234;-91
2023/06/02 05:29:53;;;;;;;4.27;2.43;;;13.90;1.00;;;;;;4996657;28;20207;-90
2023/06/02 05:32:24;;;;;;;4.60;2.40;;;14.00;1.00;;;;;;4997021;28;20197;-90
2023/06/02 05:34:51;;;;;;;5.10;2.30;;;14.00;1.00;;;;;;4996863;28;20204;-90
2023/06/02 05:37:18;;;;;;;5.37;2.03;;;14.10;99.90;;;;;;4996829;28;20260;-90
2023/06/02 05:39:45;;;;;;;6.50;2.17;;;14.10;99.90;;;;;;4996568;28;20268;-89
2023/06/02 05:42:13;;;;;;;3.20;1.83;;;14.00;30.70;;;;;;4996442;28;20201;-90
2023/06/02 05:44:40;;;;;;;2.60;1.57;;;14.00;26.20;;;;;;4996398;28;20228;-90
2023/06/02 05:47:08;;;;;;;4.80;1.50;;;14.10;1.00;;;;;;4996453;28;20202;-90
2023/06/02 05:49:35;;;;;;;2.23;1.47;;;14.10;1.00;;;;;;4996621;28;20194;-91
2023/06/02 05:52:02;;;;;;;4.30;1.80;;;14.20;1.00;;;;;;4996823;28;20263;-90
2023/06/02 05:54:29;;;;;;;3.67;1.70;;;14.30;99.90;;;;;;4996973;28;20203;-90
2023/06/02 05:56:56;;;;;;;3.20;1.67;;;14.40;99.90;;;;;;4996435;28;20292;-90
2023/06/02 05:59:24;;;;;;;3.10;1.80;;;14.40;1.00;;;;;;4996088;28;20616;-90
2023/06/02 06:01:51;;;;;;;3.20;1.40;;;14.40;1.00;;;;;;4995773;28;20265;-90
2023/06/02 06:04:18;;;;;;;3.70;1.30;;;14.30;1.00;;;;;;4996352;28;20213;-91
2023/06/02 06:06:45;;;;;;;3.77;1.70;;;14.10;1.00;;;;;;4996477;28;20198;-91
2023/06/02 06:09:12;;;;;;;3.30;1.37;;;14.00;1.00;;;;;;4995255;28;20652;-90
2023/06/02 06:11:39;;;;;;;2.20;1.40;;;14.00;1.00;;;;;;4996164;28;20185;-90
2023/06/02 06:14:07;;;;;;;5.00;1.43;;;14.00;1.00;;;;;;4995271;28;20205;-90
2023/06/02 06:16:37;;;;;;;3.40;1.40;;;14.00;1.00;;;;;;4995848;28;20296;-90
2023/06/02 06:19:04;;;;;;;4.70;1.67;;;14.10;1.00;;;;;;4995915;28;20198;-90
2023/06/02 06:21:31;;;;;;;2.33;1.40;;;14.10;1.00;;;;;;4995812;28;20205;-90
2023/06/02 06:23:58;;;;;;;5.70;1.77;;;14.20;1.00;;;;;;4995368;28;20256;-90
2023/06/02 06:26:25;;;;;;;3.50;1.40;;;14.30;1.00;;;;;;4995550;28;20203;-90
2023/06/02 06:28:52;;;;;;;5.70;1.50;;;14.40;99.90;;;;;;4995651;28;20222;-90
2023/06/02 06:31:19;;;;;;;4.37;1.63;;;14.50;99.90;;;;;;4995232;28;20206;-90
2023/06/02 06:33:48;;;;;;;3.03;1.40;;;14.50;99.90;;;;;;4996043;28;20210;-90
2023/06/02 06:36:15;;;;;;;4.53;1.43;;;14.50;94.30;;;;;;4995444;28;20214;-90
2023/06/02 06:38:42;;;;;;;5.33;1.20;;;14.40;99.90;;;;;;4995208;28;20264;-90
2023/06/02 06:41:09;;;;;;;2.97;1.40;;;14.60;99.90;;;;;;4995888;28;20198;-91
2023/06/02 06:43:37;;;;;;;3.67;1.30;;;14.70;55.30;;;;;;4995505;28;20221;-89
2023/06/02 06:46:03;;;;;;;4.47;1.60;;;14.90;1.00;;;;;;4995686;28;20198;-89
2023/06/02 06:48:30;;;;;;;5.70;1.30;;;15.00;1.00;;;;;;4995638;28;20198;-90
2023/06/02 06:50:59;;;;;;;2.43;1.30;;;15.20;1.00;;;;;;4995810;28;20210;-90
2023/06/02 06:53:27;;;;;;;5.40;1.20;;;15.30;1.00;;;;;;4995003;28;20671;-89
2023/06/02 06:55:55;;;;;;;2.17;1.10;;;15.40;1.00;;;;;;4995073;28;20231;-89
2023/06/02 06:58:22;;;;;;;1.88;1.02;;;15.30;1.00;;;;;;4995168;28;20285;-90
2023/06/02 07:00:49;;;;;;;3.60;1.10;;;15.20;1.00;;;;;;4995010;28;20206;-89
2023/06/02 07:03:16;;;;;;;2.17;1.03;;;14.90;1.00;;;;;;4993520;28;20205;-89
2023/06/02 07:05:43;;;;;;;3.77;1.33;;;14.60;1.00;;;;;;4994492;28;20731;-89
2023/06/02 07:08:11;;;;;;;3.73;0.93;;;14.40;1.00;;;;;;4993897;28;20238;-89
2023/06/02 07:10:39;;;;;;;3.00;0.90;;;14.40;99.90;;;;;;4994263;28;20192;-89
2023/06/02 07:13:06;;;;;;;4.50;1.10;;;14.40;99.90;;;;;;4994917;28;20193;-89
2023/06/02 07:15:33;;;;;;;2.47;1.00;;;14.30;99.90;;;;;;4994996;28;20202;-90
2023/06/02 07:18:00;;;;;;;5.57;1.00;;;14.20;99.90;;;;;;4993686;28;20611;-90
2023/06/02 07:20:27;;;;;;;4.93;1.07;;;14.10;99.90;;;;;;4994174;28;20644;-89
2023/06/02 07:22:54;;;;;;;8.00;1.13;;;14.10;99.90;;;;;;4994152;28;20268;-89
2023/06/02 07:25:22;;;;;;;2.07;0.90;;;14.30;99.90;;;;;;4993891;28;20200;-88
2023/06/02 07:27:49;;;;;;;2.03;1.00;;;14.40;99.90;;;;;;4994307;28;20280;-89
2023/06/02 07:30:16;;;;;;;2.97;1.20;;;14.60;99.90;;;;;;4993997;28;20202;-89
2023/06/02 07:32:43;;;;;;;3.47;0.90;;;14.70;99.90;;;;;;4994184;28;20257;-89
2023/06/02 07:35:10;;;;;;;4.63;0.87;;;14.80;99.90;;;;;;4994251;28;20193;-89
2023/06/02 07:37:37;;;;;;;2.13;1.27;;;14.80;99.90;;;;;;4994025;28;20222;-89
2023/06/02 07:40:05;;;;;;;2.43;0.90;;;14.80;99.90;;;;;;4993917;28;20198;-89
2023/06/02 07:42:33;;;;;;;2.20;0.90;;;14.80;99.90;;;;;;4993259;28;20200;-89
2023/06/02 07:45:00;;;;;;;1.53;0.73;;;14.80;99.90;;;;;;4993871;28;20664;-89
2023/06/02 07:47:27;;;;;;;1.75;0.82;;;14.90;99.90;;;;;;4993865;28;20620;-89
2023/06/02 07:49:54;;;;;;;3.75;1.95;;;15.00;99.90;;;;;;4993555;28;20655;-89
2023/06/02 07:52:21;;;;;;;2.15;1.00;;;15.10;99.90;;;;;;4994296;28;20611;-89
2023/06/02 07:54:48;;;;;;;2.67;0.90;;;15.10;99.90;;;;;;4994072;28;20666;-89
2023/06/02 07:57:15;;;;;;;3.08;1.00;;;15.10;99.90;;;;;;4993984;28;20270;-88
2023/06/02 07:59:43;;;;;;;1.70;0.83;;;15.10;99.90;;;;;;4993367;28;20203;-89
2023/06/02 08:02:10;;;;;;;1.90;1.13;;;15.10;99.90;;;;;;4993495;28;21822;-89
2023/06/02 08:04:37;;;;;;;6.03;1.17;;;15.10;99.90;;;;;;4993346;28;20731;-89
2023/06/02 08:07:04;;;;;;;2.35;1.10;;;15.30;99.90;;;;;;4993629;28;20611;-89
2023/06/02 08:09:31;;;;;;;5.95;1.38;;;15.30;99.90;;;;;;4993214;28;20317;-88
2023/06/02 08:11:58;;;;;;;1.80;1.00;;;15.20;99.90;;;;;;4992715;28;20201;-89
2023/06/02 08:14:25;;;;;;;2.13;1.07;;;15.30;99.90;;;;;;4993345;28;20256;-88
2023/06/02 08:16:55;;;;;;;5.27;1.30;;;15.30;99.90;;;;;;4992769;28;20361;-88
2023/06/02 08:19:23;;;;;;;2.73;1.30;;;15.40;99.90;;;;;;4992842;28;20204;-88
2023/06/02 08:21:51;;;;;;;1.90;0.85;;;15.60;99.90;;;;;;4993279;28;20192;-88
2023/06/02 08:24:20;;;;;;;4.72;1.20;;;15.70;99.90;;;;;;4992930;28;20205;-88
2023/06/02 08:26:48;;;;;;;2.00;0.98;;;15.80;99.90;;;;;;4993319;28;20193;-88
2023/06/02 08:29:15;;;;;;;1.30;0.70;;;15.90;99.90;;;;;;4995105;28;20229;-88
2023/06/02 08:31:42;;;;;;;2.22;1.02;;;16.00;99.90;;;;;;4993208;28;20190;-88
2023/06/02 08:34:11;;;;;;;2.42;1.00;;;16.10;99.90;;;;;;4992908;28;20595;-88
2023/06/02 08:36:38;;;;;;;1.33;0.80;;;16.10;99.90;;;;;;4991094;28;20221;-88
2023/06/02 08:39:07;;;;;;;2.15;0.90;;;16.10;99.90;;;;;;4980751;28;20202;-87
2023/06/02 08:41:39;;;;;;;2.97;1.20;;;16.10;99.90;;;;;;4988067;28;20199;-88
2023/06/02 08:44:06;;;;;;;2.45;0.85;;;16.20;99.90;;;;;;4992291;28;20201;-89
2023/06/02 08:46:33;;;;;;;2.90;1.05;;;16.20;99.90;;;;;;4992458;28;20276;-89
2023/06/02 08:49:01;;;;;;;3.40;0.93;;;16.20;99.90;;;;;;4992939;28;20258;-89
2023/06/02 08:51:36;;;;;;;7.22;1.20;;;16.30;99.90;;;;;;4973698;28;20254;-89
2023/06/02 08:54:05;;;;;;;1.77;0.70;;;16.30;99.90;;;;;;4993524;28;20276;-90
2023/06/02 08:56:32;;;;;;;1.58;0.75;;;16.40;99.90;;;;;;4996034;28;20237;-89
2023/06/02 08:58:59;;;;;;;5.90;1.05;;;16.40;99.90;;;;;;4996107;28;20205;-89
2023/06/02 09:01:27;;;;;;;2.55;0.77;;;16.40;99.90;;;;;;4995805;28;20245;-89
2023/06/02 09:03:53;;;;;;;2.15;1.08;;;16.40;99.90;;;;;;4996101;28;20198;-89
2023/06/02 09:06:22;;;;;;;1.33;0.60;;;16.40;99.90;;;;;;4996635;28;20341;-89
2023/06/02 09:08:55;;;;;;;4.07;1.00;;;16.50;99.90;;;;;;4995072;28;20251;-89
2023/06/02 09:11:22;;;;;;;6.88;1.10;;;16.40;99.90;;;;;;4995750;28;20575;-89
2023/06/02 09:13:49;;;;;;;2.47;0.70;;;16.50;99.90;;;;;;4996291;28;20246;-88
2023/06/02 09:16:16;;;;;;;2.53;0.85;;;16.60;99.50;;;;;;4987774;28;20707;-88
2023/06/02 09:18:56;;;;;;;1.60;0.80;;;16.60;97.70;;;;;;4995873;28;20731;-88
2023/06/02 09:21:26;;;;;;;1.58;0.70;;;16.70;99.50;;;;;;4995154;28;20190;-90
2023/06/02 09:23:55;;;;;;;2.00;0.90;;;16.80;99.40;;;;;;4996049;28;20195;-88
2023/06/02 09:26:25;;;;;;;2.58;0.82;;;16.90;97.60;;;;;;4995244;28;20188;-89
2023/06/02 09:29:03;;;;;;;2.05;0.80;;;16.90;96.20;;;;;;4995389;28;20309;-90
2023/06/02 09:31:43;;;;;;;3.75;0.88;;;17.00;94.80;;;;;;4995551;28;20245;-89
2023/06/02 09:34:10;;;;;;;2.20;0.70;;;16.90;90.10;;;;;;4995939;28;20229;-90
2023/06/02 09:36:38;;;;;;;5.93;1.10;;;16.90;84.10;;;;;;4996282;28;20219;-89
2023/06/02 09:39:10;;;;;;;2.35;0.70;;;16.90;81.00;;;;;;4995501;28;20205;-89
2023/06/02 09:41:37;;;;;;;2.78;1.08;;;16.90;80.00;;;;;;4995681;28;20199;-89
2023/06/02 09:44:12;;;;;;;3.58;0.60;;;16.90;79.00;;;;;;4995761;28;20195;-89
2023/06/02 09:46:44;;;;;;;1.90;0.75;;;16.90;77.60;;;;;;4994956;28;20190;-89
2023/06/02 09:49:12;;;;;;;2.70;0.80;;;16.90;73.10;;;;;;4995077;28;20191;-88
2023/06/02 09:51:40;;;;;;;1.70;0.57;;;17.10;75.10;;;;;;4994813;28;20198;-87
2023/06/02 09:54:09;;;;;;;1.52;0.70;;;17.20;72.90;;;;;;4994748;28;20552;-87
2023/06/02 09:56:37;;;;;;;1.25;0.77;;;17.20;69.10;;;;;;4995334;28;20580;-88
2023/06/02 09:59:06;;;;;;;2.10;0.90;;;17.20;67.00;;;;;;4995374;28;20202;-88
2023/06/02 10:01:33;;;;;;;1.63;0.77;;;17.20;68.50;;;;;;4995172;28;20218;-88
2023/06/02 10:04:01;;;;;;;3.30;0.93;;;17.30;65.70;;;;;;4994892;28;20191;-87
2023/06/02 10:06:42;;;;;;;3.65;0.85;;;17.40;63.10;;;;;;4994386;28;20229;-88
2023/06/02 10:09:27;;;;;;;1.55;0.63;;;17.40;58.80;;;;;;4995043;28;20195;-87
2023/06/02 10:12:07;;;;;;;1.45;0.60;;;17.40;55.30;;;;;;4994990;28;20253;-88
2023/06/02 10:15:17;;;;;;;4.47;0.93;;;17.40;56.40;;;;;;4995099;28;20199;-87
2023/06/02 10:17:53;;;;;;;8.23;0.98;;;17.40;51.80;;;;;;4994762;28;20211;-88
2023/06/02 10:20:27;;;;;;;0.95;0.70;;;17.50;50.20;;;;;;4994825;28;20194;-88
2023/06/02 10:23:27;;;;;;;1.30;0.68;;;17.50;47.20;;;;;;4995089;28;20191;-88
2023/06/02 10:26:31;;;;;;;4.03;0.80;;;17.50;46.40;;;;;;4983813;28;20619;-87
2023/06/02 10:29:01;;;;;;;2.55;0.70;;;17.60;49.50;;;;;;5007154;28;20264;-88
2023/06/02 10:31:32;;;;;;;2.55;0.70;;;17.80;47.40;;;;;;5014634;28;20190;-89
2023/06/02 10:34:00;;;;;;;1.48;0.60;;;17.80;41.90;;;;;;5014823;28;20289;-89
2023/06/02 10:36:28;;;;;;;0.90;0.70;;;17.80;42.20;;;;;;5014698;28;20276;-88
2023/06/02 10:38:56;;;;;;;2.25;0.75;;;17.90;41.30;;;;;;5013548;28;20202;-89
2023/06/02 10:41:56;;;;;;;0.95;0.68;;;17.90;38.80;;;;;;5013698;28;20226;-88
2023/06/02 10:44:25;;;;;;;1.33;0.75;;;17.90;38.20;;;;;;5013214;28;20276;-88
2023/06/02 10:47:30;;;;;;;1.00;0.70;;;18.00;34.20;;;;;;5014173;28;20648;-88
2023/06/02 10:49:58;;;;;;;1.67;0.80;;;18.00;34.10;;;;;;5002989;28;20198;-88
2023/06/02 10:52:25;;;;;;;2.05;0.68;;;18.00;32.60;;;;;;5013499;28;20281;-88
2023/06/02 10:55:28;;;;;;;4.40;0.85;;;18.00;30.00;;;;;;5014341;28;20268;-88
2023/06/02 10:57:56;;;;;;;1.30;0.60;;;17.90;28.10;;;;;;5010517;28;20300;-88
2023/06/02 11:00:47;;;;;;;1.60;0.47;;;18.00;27.00;;;;;;5012961;28;20599;-88
2023/06/02 11:03:34;;;;;;;2.10;0.60;;;18.00;26.60;;;;;;5014057;28;20194;-88
2023/06/02 11:06:24;;;;;;;2.13;0.70;;;18.00;26.70;;;;;;5013725;28;20614;-88
2023/06/02 11:08:52;;;;;;;2.25;0.82;;;18.10;27.20;;;;;;5013652;28;20690;-88
2023/06/02 11:11:54;;;;;;;2.97;1.00;;;18.20;27.10;;;;;;5013165;28;20629;-89
2023/06/02 11:14:22;;;;;;;2.70;0.70;;;18.30;26.50;;;;;;5012613;28;20284;-88
2023/06/02 11:17:21;;;;;;;2.03;0.68;;;18.40;25.70;;;;;;5012763;28;20654;-89
2023/06/02 11:19:50;;;;;;;2.00;0.60;;;18.40;24.10;;;;;;5013428;28;20625;-89
2023/06/02 11:22:21;;;;;;;1.65;0.80;;;18.50;22.60;;;;;;5013552;28;20206;-88
2023/06/02 11:24:51;;;;;;;1.38;0.60;;;18.40;20.60;;;;;;5012664;28;20225;-90
2023/06/02 11:27:18;;;;;;;2.08;0.75;;;18.40;20.40;;;;;;5011817;28;20522;-89
2023/06/02 11:29:45;;;;;;;1.20;0.52;;;18.40;19.40;;;;;;5012393;28;20249;-89
2023/06/02 11:32:14;;;;;;;3.50;0.63;;;18.40;18.60;;;;;;5012624;28;20198;-89
2023/06/02 11:34:42;;;;;;;4.45;0.75;;;18.60;19.40;;;;;;5012470;28;20571;-89
2023/06/02 11:37:16;;;;;;;0.75;0.57;;;18.60;18.40;;;;;;5012577;28;20563;-89
2023/06/02 11:39:50;;;;;;;2.47;0.68;;;18.70;17.00;;;;;;5013214;28;20205;-89
2023/06/02 11:42:17;;;;;;;1.40;0.65;;;18.60;15.80;;;;;;5012231;28;20251;-90
2023/06/02 11:44:48;;;;;;;1.15;0.75;;;18.60;13.60;;;;;;5013065;28;20206;-90
2023/06/02 11:47:19;;;;;;;1.35;0.60;;;18.60;13.70;;;;;;5012862;28;20241;-89
2023/06/02 11:49:46;;;;;;;1.75;0.75;;;18.60;13.60;;;;;;5013043;28;20198;-89
2023/06/02 11:52:14;;;;;;;4.22;0.60;;;18.60;12.90;;;;;;5012782;28;20205;-89
2023/06/02 11:54:52;;;;;;;0.82;0.50;;;18.80;12.20;;;;;;5013024;28;20601;-89
2023/06/02 11:57:32;;;;;;;0.90;0.60;;;18.90;11.80;;;;;;5012508;28;20221;-89
2023/06/02 12:00:10;;;;;;;2.22;0.70;;;18.90;10.60;;;;;;5012857;28;20220;-89
2023/06/02 12:02:39;;;;;;;2.67;0.65;;;18.80;9.50;;;;;;5012626;28;20200;-89
2023/06/02 12:05:09;;;;;;;2.70;0.63;;;18.80;7.70;;;;;;5012248;28;20684;-89
2023/06/02 12:07:37;;;;;;;0.60;0.47;;;18.80;7.80;;;;;;5011967;28;20222;-90
2023/06/02 12:10:05;;;;;;;3.35;0.60;;;18.80;6.60;;;;;;5012703;28;20202;-88
2023/06/02 12:12:33;;;;;;;1.52;0.60;;;18.90;5.40;;;;;;5010409;28;20229;-89
2023/06/02 12:15:11;;;;;;;1.95;0.73;;;18.90;6.70;;;;;;5011436;28;20194;-89
2023/06/02 12:17:42;;;;;;;1.67;0.80;;;19.00;6.90;;;;;;5009949;28;20217;-90
2023/06/02 12:20:09;;;;;;;1.13;0.57;;;19.10;7.00;;;;;;5012050;28;20233;-89
2023/06/02 12:22:52;;;;;;;1.30;0.63;;;19.20;5.30;;;;;;5011971;28;20194;-89
2023/06/02 12:25:20;;;;;;;1.65;0.55;;;19.30;5.60;;;;;;5011909;28;20207;-88
2023/06/02 12:27:48;;;;;;;2.83;0.70;;;19.30;5.30;;;;;;5008549;28;20233;-88
2023/06/02 12:30:16;;;;;;;1.05;0.52;;;19.30;5.90;;;;;;4995917;28;20219;-89
2023/06/02 12:32:43;;;;;;;1.00;0.52;;;19.40;4.60;;;;;;4995996;28;20230;-89
2023/06/02 12:35:10;;;;;;;2.15;0.50;;;19.40;3.90;;;;;;4995414;28;20619;-90
2023/06/02 12:37:42;;;;;;;2.75;0.57;;;19.40;3.60;;;;;;4996557;28;20258;-88
2023/06/02 12:40:11;;;;;;;1.13;0.32;;;19.30;4.60;;;;;;4996268;28;20207;-89
2023/06/02 12:42:38;;;;;;;9.15;1.15;;;19.30;4.40;;;;;;4995912;28;20719;-90
2023/06/02 12:45:06;;;;;;;3.50;0.63;;;19.30;3.50;;;;;;4996224;28;20199;-89
2023/06/02 12:47:33;;;;;;;3.05;0.55;;;19.30;3.30;;;;;;4994728;28;20332;-89
2023/06/02 12:50:02;;;;;;;0.63;0.47;;;19.30;2.80;;;;;;4995868;28;20195;-89
2023/06/02 12:52:30;;;;;;;1.27;0.52;;;19.40;2.40;;;;;;4996116;28;20199;-88
2023/06/02 12:54:58;;;;;;;1.15;0.60;;;19.50;1.00;;;;;;4994899;28;20253;-88
2023/06/02 12:57:26;;;;;;;4.80;0.65;;;19.50;1.00;;;;;;4996399;28;20635;-89
2023/06/02 12:59:53;;;;;;;1.52;0.43;;;19.50;1.00;;;;;;4996001;28;20195;-88